If you wish to contribute or participate in the discussions about articles you are invited to join SKYbrary as a registered user

 Actions

Ardabil Airport

From SKYbrary Wiki

OITL /
Revision as of 09:16, 8 January 2018 by Editor1 (talk | contribs) (Created page with "{{Airport |Airport_Name=Ardabil Airport |ICAO_Region=MID |ICAO_Territory=OI |IATA Code=ADU |Elevation=4315ft |Location=Gilan Deh |Main city served=Ardabil |ISO_Subdivision_Nam...")
(diff) ← Older revision | Latest revision (diff) | Newer revision → (diff)
Airport
ICAO: OITL – IATA: ADU
Summary
Name Ardabil Airport
Region Middle East
Territory Iran IR.gif
Location Gilan Deh, Ardabil
Serving Ardabil
Elevation 1,315.212 m
4,315 ft1,315.212 m
Coordinates 38° 19' 26.64" N, 48° 25' 12.54" E
Runways
Designator Length Width Surface ROPS
15/33 3299 m10,823.491 ft
45 m147.638 ft
PEM /


METAR
Observation OITL 260300Z 08010KT 9999 SCT010 BKN030 M02/M03 Q1013
Station Ardabil
Date/Time 26 March 2019 03:00:00
Wind direction 80°
Wind speed 10 kts
Lowest cloud amount scattered clouds
Temperature
Dew point
Humidity 92%
QNH 1013 hPa
Weather condition n/a

Airport serving Ardabil in north-western Iran.

Climatology

Cold Semi-arid climate (Köppen climate classification BSk).

Maps

Terrain

Loading map...

Airport Layout

Loading map...


Accidents & Serious Incidents at or in vicinity of OITL

None on SKYbrary